KSTP/STP METAR and TAF weather

Enter ICAO airport designator
Station Type Date Time Source
KSTP METAR 2020/09/21 05:53 UTC NOAA

KSTP 210553Z AUTO 17010KT 10SM CLR 18/07 A3016 RMK AO2 SLP210 60000 T01780067 10206 20178 402390117 53002


Station Type Date Time Source
KSTP Decoded METAR 2020/09/21 05:53 UTC NOAA

DOWNTOWN HOLMAN FIELD, MN, United States (KSTP) 44-56N 093-03W 219M
Sep 21, 2020 - 01:53 AM EDT / 2020.09.21 0553 UTC
Wind: from the S (170 degrees) at 12 MPH (10 KT):0
Visibility: 10 mile(s):0
Sky conditions: clear
Temperature: 64.0 F (17.8 C)
Dew Point: 44.1 F (6.7 C)
Relative Humidity: 48%
Pressure (altimeter): 30.16 in. Hg (1021 hPa)
Pressure tendency: 0.01 inches (0.2 hPa) higher than three hours ago
ob: KSTP 210553Z AUTO 17010KT 10SM CLR 18/07 A3016 RMK AO2 SLP210 60000 T01780067 10206 20178 402390117 53002
cycle: 6

Station Type Date Time Source
KSTP TAF 2018/02/05 20:57 UTC NOAA

TAF
AMD KSTP 051957Z 0520/0618 25007KT P6SM VCSH BKN020 OVC050
TEMPO 0520/0522 SCT020
FM052200 26006KT P6SM FEW020 BKN110
FM060100 31006KT P6SM FEW100
AMD NOT SKED

Example: see airport list